createdAt,value
2022-11-23T00:00:11.793Z,0.00
2022-11-23T00:01:11.796Z,0.00
2022-11-23T00:02:11.934Z,0.00
2022-11-23T00:03:11.778Z,0.00
2022-11-23T00:04:11.760Z,0.00
2022-11-23T00:05:11.749Z,0.00
2022-11-23T00:06:11.731Z,0.00
2022-11-23T00:07:11.765Z,0.00
2022-11-23T00:08:11.725Z,0.00
2022-11-23T00:09:11.714Z,0.00
2022-11-23T00:10:11.690Z,0.00
2022-11-23T00:11:11.694Z,0.00
2022-11-23T00:12:11.721Z,0.00
2022-11-23T00:13:11.662Z,0.00
2022-11-23T00:14:11.705Z,0.00
2022-11-23T00:15:11.639Z,0.00
2022-11-23T00:16:11.632Z,0.00
2022-11-23T00:17:11.622Z,0.00
2022-11-23T00:18:11.613Z,0.00
2022-11-23T00:19:11.655Z,0.00
2022-11-23T00:20:11.605Z,0.00
2022-11-23T00:21:11.577Z,0.00
2022-11-23T00:22:11.563Z,0.00
2022-11-23T00:23:11.553Z,0.00
2022-11-23T00:24:11.577Z,0.00
2022-11-23T00:25:11.621Z,0.00
2022-11-23T00:26:11.507Z,0.00
2022-11-23T00:27:11.522Z,0.00
2022-11-23T00:28:11.557Z,0.00
2022-11-23T00:29:11.512Z,0.00
2022-11-23T00:30:11.483Z,0.00
2022-11-23T00:31:11.475Z,0.00
2022-11-23T00:32:11.462Z,0.00
2022-11-23T00:33:11.444Z,0.00
2022-11-23T00:34:11.463Z,0.00
2022-11-23T00:35:11.444Z,0.00
2022-11-23T00:36:11.418Z,0.00
2022-11-23T00:37:11.418Z,0.00
2022-11-23T00:38:11.394Z,0.00
2022-11-23T00:39:11.408Z,0.00
2022-11-23T00:40:11.374Z,0.00
2022-11-23T00:41:11.382Z,0.00
2022-11-23T00:42:11.353Z,0.00
2022-11-23T00:43:11.358Z,0.00
2022-11-23T00:44:11.348Z,0.00
2022-11-23T00:45:11.333Z,0.00
2022-11-23T00:46:11.304Z,0.00
2022-11-23T00:47:11.319Z,0.00
2022-11-23T00:48:11.291Z,0.00
2022-11-23T00:49:11.301Z,0.00
2022-11-23T00:50:11.290Z,0.00
2022-11-23T00:51:11.265Z,0.00
2022-11-23T00:52:11.251Z,0.00
2022-11-23T00:53:11.243Z,0.00
2022-11-23T00:54:11.237Z,0.00
2022-11-23T00:55:11.249Z,0.00
2022-11-23T00:56:11.202Z,0.00
2022-11-23T00:57:11.225Z,0.00
2022-11-23T00:58:11.190Z,0.00
2022-11-23T00:59:11.209Z,0.00
2022-11-23T01:00:11.195Z,0.00
2022-11-23T01:01:11.272Z,0.00
2022-11-23T01:02:11.133Z,0.00
2022-11-23T01:03:11.143Z,0.00
2022-11-23T01:04:11.124Z,0.00
2022-11-23T01:05:11.125Z,0.00
2022-11-23T01:06:11.120Z,0.00
2022-11-23T01:07:11.149Z,0.00
2022-11-23T01:08:11.095Z,0.00
2022-11-23T01:09:11.099Z,0.00
2022-11-23T01:10:11.059Z,0.00
2022-11-23T01:11:11.077Z,0.00
2022-11-23T01:12:11.067Z,0.00
2022-11-23T01:13:11.041Z,0.00
2022-11-23T01:14:11.036Z,0.00
2022-11-23T01:15:11.015Z,0.00
2022-11-23T01:16:11.019Z,0.00
2022-11-23T01:17:11.005Z,0.00
2022-11-23T01:18:10.970Z,0.00
2022-11-23T01:19:10.981Z,0.00
2022-11-23T01:20:10.971Z,0.00
2022-11-23T01:21:10.976Z,0.00
2022-11-23T01:22:10.939Z,0.00
2022-11-23T01:23:10.938Z,0.00
2022-11-23T01:24:10.914Z,0.00
2022-11-23T01:25:10.909Z,0.00
2022-11-23T01:26:10.905Z,0.00
2022-11-23T01:27:10.902Z,0.00
2022-11-23T01:28:10.874Z,0.00
2022-11-23T01:29:10.866Z,0.00
2022-11-23T01:30:10.876Z,0.00
2022-11-23T01:31:10.851Z,0.00
2022-11-23T01:32:10.881Z,0.00
2022-11-23T01:33:10.821Z,0.00
2022-11-23T01:34:10.804Z,0.00
2022-11-23T01:35:10.810Z,0.00
2022-11-23T01:36:10.805Z,0.00
2022-11-23T01:37:10.793Z,0.00
2022-11-23T01:38:16.644Z,0.00
2022-11-23T01:39:10.763Z,0.00
2022-11-23T01:40:10.755Z,0.00
2022-11-23T01:41:10.760Z,0.00
2022-11-23T01:42:15.129Z,0.00
2022-11-23T01:43:10.739Z,0.00
2022-11-23T01:44:10.718Z,0.00
2022-11-23T01:45:10.703Z,0.00
2022-11-23T01:46:10.681Z,0.00
2022-11-23T01:47:10.681Z,0.00
2022-11-23T01:48:10.673Z,0.00
2022-11-23T01:49:10.669Z,0.00
2022-11-23T01:50:10.662Z,0.00
2022-11-23T01:51:10.636Z,0.00
2022-11-23T01:52:10.636Z,0.00
2022-11-23T01:53:10.602Z,0.00
2022-11-23T01:54:10.627Z,0.00
2022-11-23T01:55:10.591Z,0.00
2022-11-23T01:56:10.586Z,0.00
2022-11-23T01:57:10.562Z,0.00
2022-11-23T01:58:10.567Z,0.00
2022-11-23T01:59:10.575Z,0.00
2022-11-23T02:00:10.556Z,0.00
2022-11-23T02:01:10.565Z,0.00
2022-11-23T02:02:10.523Z,0.00
2022-11-23T02:03:10.530Z,0.00
2022-11-23T02:04:10.531Z,0.00
2022-11-23T02:05:10.487Z,0.00
2022-11-23T02:06:10.499Z,0.00
2022-11-23T02:07:10.553Z,0.00
2022-11-23T02:08:10.477Z,0.00
2022-11-23T02:09:10.441Z,0.00
2022-11-23T02:10:10.457Z,0.00
2022-11-23T02:11:10.427Z,0.00
2022-11-23T02:12:10.425Z,0.00
2022-11-23T02:13:10.407Z,0.00
2022-11-23T02:14:10.410Z,0.00
2022-11-23T02:15:10.411Z,0.00
2022-11-23T02:16:10.386Z,0.00
2022-11-23T02:17:10.357Z,0.00
2022-11-23T02:18:10.357Z,0.00
2022-11-23T02:19:10.354Z,0.00
2022-11-23T02:20:10.337Z,0.00
2022-11-23T02:21:10.337Z,0.00
2022-11-23T02:22:10.337Z,0.00
2022-11-23T02:23:10.296Z,0.00
2022-11-23T02:24:10.300Z,0.00
2022-11-23T02:25:10.402Z,0.00
2022-11-23T02:26:10.285Z,0.00
2022-11-23T02:27:10.269Z,0.00
2022-11-23T02:28:10.254Z,0.00
2022-11-23T02:29:10.236Z,0.00
2022-11-23T02:30:10.245Z,0.00
2022-11-23T02:31:10.231Z,0.00
2022-11-23T02:32:10.242Z,0.00
2022-11-23T02:33:10.213Z,0.00
2022-11-23T02:34:10.201Z,0.00
2022-11-23T02:35:10.192Z,0.00
2022-11-23T02:36:10.177Z,0.00
2022-11-23T02:37:10.150Z,0.00
2022-11-23T02:38:10.171Z,0.00
2022-11-23T02:39:10.163Z,0.00
2022-11-23T02:40:10.138Z,0.00
2022-11-23T02:41:10.115Z,0.00
2022-11-23T02:42:10.123Z,0.00
2022-11-23T02:43:10.092Z,0.00
2022-11-23T02:44:10.084Z,0.00
2022-11-23T02:45:10.079Z,0.00
2022-11-23T02:46:10.068Z,0.00
2022-11-23T02:47:10.164Z,0.00
2022-11-23T02:48:10.060Z,0.00
2022-11-23T02:49:10.019Z,0.00
2022-11-23T02:50:10.030Z,0.00
2022-11-23T02:51:10.010Z,0.00
2022-11-23T02:52:10.013Z,0.00
2022-11-23T02:53:09.994Z,0.00
2022-11-23T02:54:09.980Z,0.00
2022-11-23T02:55:09.977Z,0.00
2022-11-23T02:56:09.955Z,0.00
2022-11-23T02:57:10.115Z,0.00
2022-11-23T02:58:09.949Z,0.00
2022-11-23T02:59:09.926Z,0.00
2022-11-23T03:00:09.938Z,0.00
2022-11-23T03:01:09.986Z,0.00
2022-11-23T03:02:09.902Z,0.00
2022-11-23T03:03:09.902Z,0.00
2022-11-23T03:04:09.907Z,0.00
2022-11-23T03:05:09.866Z,0.00
2022-11-23T03:06:09.884Z,0.00
2022-11-23T03:07:09.869Z,0.00
2022-11-23T03:08:09.848Z,0.00
2022-11-23T03:09:09.851Z,0.00
2022-11-23T03:10:09.814Z,0.00
2022-11-23T03:11:09.815Z,0.00
2022-11-23T03:12:09.798Z,0.00
2022-11-23T03:13:09.803Z,0.00
2022-11-23T03:14:09.778Z,0.00
2022-11-23T03:15:09.753Z,0.00
2022-11-23T03:16:09.762Z,0.00
2022-11-23T03:17:09.744Z,0.00
2022-11-23T03:18:09.751Z,0.00
2022-11-23T03:19:09.742Z,0.00
2022-11-23T03:20:09.724Z,0.00
2022-11-23T03:21:09.697Z,0.00
2022-11-23T03:22:09.689Z,0.00
2022-11-23T03:23:09.718Z,0.00
2022-11-23T03:24:09.673Z,0.00
2022-11-23T03:25:09.659Z,0.00
2022-11-23T03:26:13.113Z,0.00
2022-11-23T03:27:09.641Z,0.00
2022-11-23T03:28:09.648Z,0.00
2022-11-23T03:29:09.609Z,0.00
2022-11-23T03:30:09.613Z,0.00
2022-11-23T03:31:09.589Z,0.00
2022-11-23T03:32:09.591Z,0.00
2022-11-23T03:33:09.593Z,0.00
2022-11-23T03:34:09.564Z,0.00
2022-11-23T03:35:09.554Z,0.00
2022-11-23T03:36:09.548Z,0.00
2022-11-23T03:37:09.537Z,0.00
2022-11-23T03:38:09.530Z,0.00
2022-11-23T03:39:09.519Z,0.00
2022-11-23T03:40:09.507Z,0.00
2022-11-23T03:41:09.489Z,0.00
2022-11-23T03:42:09.484Z,0.00
2022-11-23T03:43:09.495Z,0.00
2022-11-23T03:44:09.464Z,0.00
2022-11-23T03:45:09.446Z,0.00
2022-11-23T03:46:09.449Z,0.00
2022-11-23T03:47:09.448Z,0.00
2022-11-23T03:48:09.434Z,0.00
2022-11-23T03:49:09.404Z,0.00
2022-11-23T03:50:09.402Z,0.00
2022-11-23T03:51:09.402Z,0.00
2022-11-23T03:52:09.384Z,0.00
2022-11-23T03:53:09.367Z,0.00
2022-11-23T03:54:09.362Z,0.00
2022-11-23T03:55:09.347Z,0.00
2022-11-23T03:56:09.344Z,0.00
2022-11-23T03:57:09.316Z,0.00
2022-11-23T03:58:09.338Z,0.00
2022-11-23T03:59:09.343Z,0.00
2022-11-23T04:00:09.324Z,0.00
2022-11-23T04:01:09.311Z,0.00
2022-11-23T04:02:09.269Z,0.00
2022-11-23T04:03:09.291Z,0.00
2022-11-23T04:04:09.253Z,0.00
2022-11-23T04:05:09.240Z,0.00
2022-11-23T04:06:09.226Z,0.00
2022-11-23T04:07:09.289Z,0.00
2022-11-23T04:08:09.212Z,0.00
2022-11-23T04:09:09.203Z,0.00
2022-11-23T04:10:09.195Z,0.00
2022-11-23T04:11:09.185Z,0.00
2022-11-23T04:12:09.166Z,0.00
2022-11-23T04:13:09.155Z,0.00
2022-11-23T04:14:09.167Z,0.00
2022-11-23T04:15:09.138Z,0.00
2022-11-23T04:16:09.153Z,0.00
2022-11-23T04:17:09.109Z,0.00
2022-11-23T04:18:09.107Z,0.00
2022-11-23T04:19:15.118Z,0.00
2022-11-23T04:20:09.086Z,0.00
2022-11-23T04:21:09.072Z,0.00
2022-11-23T04:22:09.073Z,0.00
2022-11-23T04:23:13.064Z,0.00
2022-11-23T04:24:09.040Z,0.00
2022-11-23T04:25:09.047Z,0.00
2022-11-23T04:26:09.024Z,0.00
2022-11-23T04:27:09.006Z,0.00
2022-11-23T04:28:09.005Z,0.00
2022-11-23T04:29:08.985Z,0.00
2022-11-23T04:30:09.002Z,0.00
2022-11-23T04:31:08.963Z,0.00
2022-11-23T04:32:08.963Z,0.00
2022-11-23T04:33:08.947Z,0.00
2022-11-23T04:34:08.942Z,0.00
2022-11-23T04:35:08.940Z,0.00
2022-11-23T04:36:08.923Z,0.00
2022-11-23T04:37:13.000Z,0.00
2022-11-23T04:38:08.904Z,0.00
2022-11-23T04:39:08.886Z,0.00
2022-11-23T04:40:08.890Z,0.00
2022-11-23T04:41:08.862Z,0.00
2022-11-23T04:42:08.860Z,0.00
2022-11-23T04:43:08.845Z,0.00
2022-11-23T04:44:08.840Z,0.00
2022-11-23T04:45:08.839Z,0.00
2022-11-23T04:46:08.818Z,0.00
2022-11-23T04:47:08.795Z,0.00
2022-11-23T04:48:08.798Z,0.00
2022-11-23T04:49:08.780Z,0.00
2022-11-23T04:50:08.785Z,0.00
2022-11-23T04:51:08.755Z,0.00
2022-11-23T04:52:08.762Z,0.00
2022-11-23T04:53:08.758Z,0.00
2022-11-23T04:54:08.749Z,0.00
2022-11-23T04:55:08.728Z,0.00
2022-11-23T04:56:08.721Z,0.00
2022-11-23T04:57:08.702Z,0.00
2022-11-23T04:58:08.689Z,0.00
2022-11-23T04:59:08.677Z,0.00
2022-11-23T05:00:08.654Z,0.00
2022-11-23T05:01:08.738Z,0.00
2022-11-23T05:02:08.650Z,0.00
2022-11-23T05:03:08.623Z,0.00
2022-11-23T05:04:10.413Z,0.00
2022-11-23T05:05:08.610Z,0.00
2022-11-23T05:06:08.625Z,0.00
2022-11-23T05:07:08.644Z,0.00
2022-11-23T05:08:08.585Z,0.00
2022-11-23T05:09:08.584Z,0.00
2022-11-23T05:10:08.567Z,0.00
2022-11-23T05:11:08.560Z,0.00
2022-11-23T05:12:08.539Z,0.00
2022-11-23T05:13:08.521Z,0.00
2022-11-23T05:14:08.523Z,0.00
2022-11-23T05:15:08.503Z,0.00
2022-11-23T05:16:08.503Z,0.00
2022-11-23T05:17:08.499Z,0.00
2022-11-23T05:18:08.481Z,0.00
2022-11-23T05:19:08.474Z,0.00
2022-11-23T05:20:08.473Z,0.00
2022-11-23T05:21:08.443Z,0.00
2022-11-23T05:22:08.461Z,0.00
2022-11-23T05:23:08.414Z,0.00
2022-11-23T05:24:08.413Z,0.00
2022-11-23T05:25:08.409Z,0.00
2022-11-23T05:26:08.397Z,0.00
2022-11-23T05:27:08.401Z,0.00
2022-11-23T05:28:38.042Z,0.00
2022-11-23T05:29:08.361Z,0.00
2022-11-23T05:30:08.367Z,0.00
2022-11-23T05:31:08.337Z,0.00
2022-11-23T05:32:08.346Z,0.00
2022-11-23T05:33:08.326Z,0.00
2022-11-23T05:34:08.341Z,0.00
2022-11-23T05:35:08.299Z,0.00
2022-11-23T05:36:08.303Z,0.00
2022-11-23T05:37:08.276Z,0.00
2022-11-23T05:38:08.280Z,0.00
2022-11-23T05:39:08.257Z,0.00
2022-11-23T05:40:08.283Z,0.00
2022-11-23T05:41:08.243Z,0.00
2022-11-23T05:42:08.230Z,0.00
2022-11-23T05:43:08.212Z,0.00
2022-11-23T05:44:08.211Z,0.00
2022-11-23T05:45:11.539Z,0.00
2022-11-23T05:46:08.218Z,0.00
2022-11-23T05:47:08.166Z,0.00
2022-11-23T05:48:08.171Z,0.00
2022-11-23T05:49:08.157Z,0.00
2022-11-23T05:50:08.148Z,0.00
2022-11-23T05:51:08.149Z,0.00
2022-11-23T05:52:08.129Z,0.00
2022-11-23T05:53:08.107Z,0.00
2022-11-23T05:54:08.110Z,0.00
2022-11-23T05:55:08.342Z,0.00
2022-11-23T05:56:08.094Z,0.00
2022-11-23T05:57:08.187Z,0.00
2022-11-23T05:58:08.083Z,0.00
2022-11-23T05:59:08.095Z,0.00
2022-11-23T06:00:08.045Z,0.00
2022-11-23T06:01:08.025Z,0.00
2022-11-23T06:02:08.052Z,0.00
2022-11-23T06:03:08.001Z,0.00
2022-11-23T06:04:08.062Z,0.00
2022-11-23T06:05:07.988Z,0.00
2022-11-23T06:06:07.986Z,0.00
2022-11-23T06:07:08.022Z,0.00
2022-11-23T06:08:07.952Z,0.00
2022-11-23T06:09:07.950Z,0.00
2022-11-23T06:10:07.926Z,0.00
2022-11-23T06:11:07.934Z,0.00
2022-11-23T06:12:07.931Z,0.00
2022-11-23T06:13:07.899Z,0.00
2022-11-23T06:14:13.903Z,0.00
2022-11-23T06:15:07.892Z,0.00
2022-11-23T06:16:07.863Z,0.00
2022-11-23T06:17:07.881Z,0.00
2022-11-23T06:18:07.845Z,0.00
2022-11-23T06:19:07.857Z,0.00
2022-11-23T06:20:07.833Z,0.00
2022-11-23T06:21:07.819Z,0.00
2022-11-23T06:22:07.837Z,0.00
2022-11-23T06:23:07.806Z,0.00
2022-11-23T06:24:07.784Z,0.00
2022-11-23T06:25:07.781Z,0.00
2022-11-23T06:26:07.774Z,0.00
2022-11-23T06:27:07.779Z,0.00
2022-11-23T06:28:07.766Z,0.00
2022-11-23T06:29:07.736Z,0.00
2022-11-23T06:30:07.734Z,0.00
2022-11-23T06:31:07.718Z,0.00
2022-11-23T06:32:07.697Z,0.00
2022-11-23T06:33:07.712Z,0.00
2022-11-23T06:34:07.682Z,0.00
2022-11-23T06:35:07.684Z,0.00
2022-11-23T06:36:07.662Z,0.00
2022-11-23T06:37:07.607Z,0.00
2022-11-23T06:38:07.665Z,0.00
2022-11-23T06:39:07.639Z,0.00
2022-11-23T06:40:07.619Z,0.00
2022-11-23T06:41:07.631Z,0.00
2022-11-23T06:42:31.425Z,0.00
2022-11-23T06:43:07.565Z,0.00
2022-11-23T06:44:07.591Z,0.00
2022-11-23T06:45:07.527Z,0.00
2022-11-23T06:46:07.502Z,0.00
2022-11-23T06:47:07.493Z,0.00
2022-11-23T06:48:07.497Z,0.00
2022-11-23T06:49:07.483Z,0.00
2022-11-23T06:50:07.453Z,0.00
2022-11-23T06:51:07.461Z,0.00
2022-11-23T06:52:07.442Z,0.00
2022-11-23T06:53:07.435Z,0.00
2022-11-23T06:54:07.430Z,0.00
2022-11-23T06:55:07.421Z,0.00
2022-11-23T06:56:07.393Z,0.00
2022-11-23T06:57:07.402Z,0.00
2022-11-23T06:58:07.369Z,0.00
2022-11-23T06:59:07.637Z,0.00
2022-11-23T07:00:07.358Z,0.00
2022-11-23T07:01:07.435Z,0.00
2022-11-23T07:02:07.333Z,0.00
2022-11-23T07:03:07.407Z,0.00
2022-11-23T07:04:07.315Z,0.00
2022-11-23T07:05:07.328Z,0.00
2022-11-23T07:06:07.287Z,0.00
2022-11-23T07:07:07.380Z,0.00
2022-11-23T07:08:07.281Z,0.00
2022-11-23T07:09:07.286Z,0.00
2022-11-23T07:10:07.649Z,0.00
2022-11-23T07:11:07.257Z,0.00
2022-11-23T07:12:07.230Z,0.00
2022-11-23T07:13:07.221Z,0.00
2022-11-23T07:14:07.209Z,0.00
2022-11-23T07:15:07.219Z,0.00
2022-11-23T07:16:07.209Z,0.00
2022-11-23T07:17:07.190Z,0.00
2022-11-23T07:18:07.163Z,0.00
2022-11-23T07:19:07.180Z,0.00
2022-11-23T07:20:07.147Z,0.00
2022-11-23T07:21:07.140Z,0.00
2022-11-23T07:22:07.150Z,0.00
2022-11-23T07:23:07.128Z,0.00
2022-11-23T07:24:07.105Z,0.00
2022-11-23T07:25:07.114Z,0.00
2022-11-23T07:26:07.112Z,0.00
2022-11-23T07:27:07.091Z,0.00
2022-11-23T07:28:07.071Z,0.00
2022-11-23T07:29:07.064Z,0.00
2022-11-23T07:30:07.061Z,0.00
2022-11-23T07:31:07.043Z,0.00
2022-11-23T07:32:07.150Z,0.00
2022-11-23T07:33:07.022Z,0.00
2022-11-23T07:34:07.002Z,0.00
2022-11-23T07:35:07.014Z,0.00
2022-11-23T07:36:06.987Z,0.00
2022-11-23T07:37:06.974Z,0.00
2022-11-23T07:38:06.977Z,0.00
2022-11-23T07:39:06.961Z,5.62
2022-11-23T07:40:07.035Z,0.00
2022-11-23T07:41:06.944Z,0.00
2022-11-23T07:42:31.210Z,0.00
2022-11-23T07:43:06.926Z,0.00
2022-11-23T07:44:06.914Z,0.00
2022-11-23T07:45:06.888Z,0.00
2022-11-23T07:46:06.882Z,0.00
2022-11-23T07:47:06.873Z,0.00
2022-11-23T07:48:06.883Z,0.00
2022-11-23T07:49:06.863Z,0.00
2022-11-23T07:50:06.839Z,0.00
2022-11-23T07:51:06.847Z,0.00
2022-11-23T07:52:06.818Z,0.00
2022-11-23T07:53:06.801Z,0.00
2022-11-23T07:54:06.816Z,0.00
2022-11-23T07:55:06.789Z,0.00
2022-11-23T07:56:06.784Z,0.00
2022-11-23T07:57:06.772Z,0.00
2022-11-23T07:58:06.760Z,0.00
2022-11-23T07:59:06.776Z,0.00
2022-11-23T08:00:06.737Z,0.00
2022-11-23T08:01:06.744Z,0.00
2022-11-23T08:02:06.789Z,0.00
2022-11-23T08:04:06.710Z,0.00
2022-11-23T08:05:11.265Z,5.62
2022-11-23T08:06:06.674Z,5.62
2022-11-23T08:07:06.709Z,5.62
2022-11-23T08:08:06.654Z,5.62
2022-11-23T08:09:06.732Z,0.00
2022-11-23T08:10:06.710Z,0.00
2022-11-23T08:11:06.631Z,0.00
2022-11-23T08:12:06.614Z,5.62
2022-11-23T08:13:06.598Z,5.62
2022-11-23T08:14:06.610Z,5.62
2022-11-23T08:15:06.625Z,5.62
2022-11-23T08:16:06.561Z,5.62
2022-11-23T08:17:06.565Z,5.62
2022-11-23T08:18:06.542Z,5.62
2022-11-23T08:19:06.547Z,5.62
2022-11-23T08:20:06.530Z,5.62
2022-11-23T08:21:06.535Z,5.62
2022-11-23T08:22:06.511Z,5.62
2022-11-23T08:23:06.530Z,11.25
2022-11-23T08:24:06.479Z,11.25
2022-11-23T08:25:06.481Z,11.25
2022-11-23T08:26:10.493Z,11.25
2022-11-23T08:27:06.473Z,11.25
2022-11-23T08:28:06.449Z,16.88
2022-11-23T08:29:06.440Z,16.88
2022-11-23T08:30:06.419Z,16.88
2022-11-23T08:31:06.880Z,16.88
2022-11-23T08:32:06.403Z,16.88
2022-11-23T08:33:06.398Z,16.88
2022-11-23T08:34:06.379Z,16.88
2022-11-23T08:35:06.379Z,16.88
2022-11-23T08:36:06.383Z,16.88
2022-11-23T08:37:06.386Z,16.88
2022-11-23T08:38:06.346Z,16.88
2022-11-23T08:39:06.332Z,16.88
2022-11-23T08:40:06.321Z,16.88
2022-11-23T08:41:06.314Z,16.88
2022-11-23T08:42:06.287Z,16.88
2022-11-23T08:43:06.310Z,16.88
2022-11-23T08:44:06.275Z,16.88
2022-11-23T08:45:06.288Z,22.50
2022-11-23T08:46:10.937Z,16.88
2022-11-23T08:47:06.285Z,16.88
2022-11-23T08:48:06.252Z,16.88
2022-11-23T08:49:06.242Z,16.88
2022-11-23T08:50:06.237Z,16.88
2022-11-23T08:51:06.227Z,16.88
2022-11-23T08:52:06.210Z,16.88
2022-11-23T08:53:06.204Z,16.88
2022-11-23T08:54:06.201Z,16.88
2022-11-23T08:55:06.165Z,16.88
2022-11-23T08:56:06.258Z,16.88
2022-11-23T08:57:06.173Z,16.88
2022-11-23T08:58:11.828Z,16.88
2022-11-23T08:59:06.156Z,16.88
2022-11-23T09:00:06.376Z,16.88
2022-11-23T09:01:06.162Z,16.88
2022-11-23T09:02:06.107Z,16.88
2022-11-23T09:03:06.097Z,16.88
2022-11-23T09:04:06.138Z,22.50
2022-11-23T09:05:06.077Z,22.50
2022-11-23T09:06:06.055Z,22.50
2022-11-23T09:07:06.113Z,28.12
2022-11-23T09:08:06.043Z,28.12
2022-11-23T09:09:06.022Z,28.12
2022-11-23T09:10:06.018Z,28.12
2022-11-23T09:11:06.033Z,28.12
2022-11-23T09:12:05.985Z,28.12
2022-11-23T09:13:05.987Z,28.12
2022-11-23T09:14:05.961Z,33.75
2022-11-23T09:15:05.988Z,33.75
2022-11-23T09:16:05.962Z,33.75
2022-11-23T09:17:05.956Z,33.75
2022-11-23T09:18:05.935Z,33.75
2022-11-23T09:19:05.922Z,33.75
2022-11-23T09:20:05.904Z,33.75
2022-11-23T09:21:05.905Z,33.75
2022-11-23T09:22:05.901Z,33.75
2022-11-23T09:23:10.534Z,39.38
2022-11-23T09:24:05.869Z,39.38
2022-11-23T09:25:05.950Z,39.38
2022-11-23T09:26:05.830Z,45.00
2022-11-23T09:27:05.895Z,45.00
2022-11-23T09:28:05.823Z,50.62
2022-11-23T09:29:05.809Z,50.62
2022-11-23T09:30:05.793Z,50.62
2022-11-23T09:31:05.792Z,50.62
2022-11-23T09:32:05.777Z,50.62
2022-11-23T09:33:05.799Z,50.62
2022-11-23T09:34:05.746Z,56.25
2022-11-23T09:35:05.755Z,56.25
2022-11-23T09:36:05.730Z,56.25
2022-11-23T09:37:05.733Z,50.62
2022-11-23T09:38:05.715Z,56.25
2022-11-23T09:39:05.709Z,56.25
2022-11-23T09:40:05.690Z,56.25
2022-11-23T09:41:05.733Z,56.25
2022-11-23T09:42:05.681Z,50.62
2022-11-23T09:43:05.678Z,56.25
2022-11-23T09:44:05.660Z,56.25
2022-11-23T09:45:05.643Z,56.25
2022-11-23T09:46:05.628Z,56.25
2022-11-23T09:47:05.632Z,56.25
2022-11-23T09:48:05.617Z,61.88
2022-11-23T09:49:05.610Z,61.88
2022-11-23T09:50:05.676Z,73.12
2022-11-23T09:51:05.592Z,73.12
2022-11-23T09:52:05.568Z,73.12
2022-11-23T09:53:05.652Z,67.50
2022-11-23T09:54:05.530Z,73.12
2022-11-23T09:55:05.552Z,67.50
2022-11-23T09:56:05.525Z,73.12
2022-11-23T09:57:05.525Z,78.75
2022-11-23T09:58:05.497Z,67.50
2022-11-23T09:59:05.523Z,61.88
2022-11-23T10:00:05.577Z,61.88
2022-11-23T10:01:05.473Z,61.88
2022-11-23T10:02:05.624Z,61.88
2022-11-23T10:03:05.460Z,61.88
2022-11-23T10:04:05.455Z,61.88
2022-11-23T10:05:05.438Z,61.88
2022-11-23T10:06:05.425Z,61.88
2022-11-23T10:07:05.442Z,61.88
2022-11-23T10:08:05.398Z,67.50
2022-11-23T10:09:05.419Z,67.50
2022-11-23T10:10:05.371Z,84.38
2022-11-23T10:11:05.387Z,84.38
2022-11-23T10:12:05.456Z,95.62
2022-11-23T10:13:05.347Z,95.62
2022-11-23T10:14:05.370Z,101.25
2022-11-23T10:15:05.338Z,118.12
2022-11-23T10:16:05.316Z,118.12
2022-11-23T10:17:05.302Z,135.00
2022-11-23T10:18:05.295Z,236.25
2022-11-23T10:19:05.331Z,331.88
2022-11-23T10:20:05.290Z,388.12
2022-11-23T10:21:05.263Z,258.75
2022-11-23T10:22:05.259Z,180.00
2022-11-23T10:23:05.243Z,157.50
2022-11-23T10:24:05.240Z,140.62
2022-11-23T10:25:05.232Z,213.75
2022-11-23T10:26:05.240Z,225.00
2022-11-23T10:27:05.215Z,292.50
2022-11-23T10:28:05.186Z,315.00
2022-11-23T10:29:05.192Z,298.12
2022-11-23T10:30:05.213Z,292.50
2022-11-23T10:31:05.177Z,292.50
2022-11-23T10:32:05.158Z,146.25
2022-11-23T10:33:05.141Z,73.12
2022-11-23T10:34:05.148Z,56.25
2022-11-23T10:35:05.114Z,90.00
2022-11-23T10:36:05.142Z,61.88
2022-11-23T10:37:05.102Z,67.50
2022-11-23T10:38:05.088Z,95.62
2022-11-23T10:39:05.081Z,123.75
2022-11-23T10:40:05.095Z,196.88
2022-11-23T10:41:05.057Z,78.75
2022-11-23T10:42:05.058Z,67.50
2022-11-23T10:43:05.025Z,61.88
2022-11-23T10:44:05.026Z,61.88
2022-11-23T10:45:05.019Z,61.88
2022-11-23T10:46:05.068Z,78.75
2022-11-23T10:47:04.991Z,73.12
2022-11-23T10:48:04.992Z,303.75
2022-11-23T10:49:04.979Z,258.75
2022-11-23T10:50:04.962Z,95.62
2022-11-23T10:51:04.955Z,236.25
2022-11-23T10:52:04.934Z,219.38
2022-11-23T10:53:04.932Z,191.25
2022-11-23T10:54:05.762Z,168.75
2022-11-23T10:55:04.903Z,343.12
2022-11-23T10:56:05.298Z,298.12
2022-11-23T10:57:04.881Z,331.88
2022-11-23T10:58:04.899Z,376.88
2022-11-23T10:59:04.867Z,337.50
2022-11-23T11:00:04.850Z,258.75
2022-11-23T11:01:04.890Z,258.75
2022-11-23T11:02:04.902Z,292.50
2022-11-23T11:03:04.827Z,253.12
2022-11-23T11:04:04.836Z,135.00
2022-11-23T11:05:04.806Z,275.62
2022-11-23T11:06:09.451Z,376.88
2022-11-23T11:07:04.841Z,213.75
2022-11-23T11:08:04.804Z,466.88
2022-11-23T11:09:08.360Z,534.38
2022-11-23T11:10:04.766Z,556.88
2022-11-23T11:11:04.744Z,545.62
2022-11-23T11:12:04.740Z,551.25
2022-11-23T11:13:04.733Z,545.62
2022-11-23T11:14:04.743Z,551.25
2022-11-23T11:15:11.375Z,511.88
2022-11-23T11:16:04.690Z,472.50
2022-11-23T11:17:04.696Z,258.75
2022-11-23T11:18:04.705Z,95.62
2022-11-23T11:19:04.654Z,309.38
2022-11-23T11:20:04.655Z,326.25
2022-11-23T11:21:04.639Z,208.12
2022-11-23T11:22:04.638Z,202.50
2022-11-23T11:23:04.622Z,348.75
2022-11-23T11:24:04.630Z,483.75
2022-11-23T11:25:04.598Z,354.38
2022-11-23T11:26:04.625Z,270.00
2022-11-23T11:27:04.578Z,90.00
2022-11-23T11:28:04.596Z,174.38
2022-11-23T11:29:04.583Z,168.75
2022-11-23T11:30:04.555Z,163.12
2022-11-23T11:31:04.538Z,168.75
2022-11-23T11:32:04.530Z,84.38
2022-11-23T11:33:05.049Z,112.50
2022-11-23T11:34:04.542Z,95.62
2022-11-23T11:35:04.487Z,78.75
2022-11-23T11:36:04.483Z,95.62
2022-11-23T11:37:04.468Z,157.50
2022-11-23T11:38:04.458Z,191.25
2022-11-23T11:39:20.008Z,129.38
2022-11-23T11:40:04.460Z,106.88
2022-11-23T11:41:04.426Z,196.88
2022-11-23T11:42:04.431Z,123.75
2022-11-23T11:43:04.409Z,118.12
2022-11-23T11:44:04.398Z,67.50
2022-11-23T11:45:04.405Z,67.50
2022-11-23T11:46:27.877Z,185.62
2022-11-23T11:47:04.374Z,61.88
2022-11-23T11:48:04.380Z,61.88
2022-11-23T11:49:04.364Z,140.62
2022-11-23T11:50:04.353Z,73.12
2022-11-23T11:51:04.344Z,78.75
2022-11-23T11:52:04.310Z,78.75
2022-11-23T11:53:04.304Z,73.12
2022-11-23T11:54:04.312Z,73.12
2022-11-23T11:55:04.360Z,67.50
2022-11-23T11:56:04.311Z,67.50
2022-11-23T11:57:04.284Z,67.50
2022-11-23T11:58:04.290Z,67.50
2022-11-23T11:59:04.251Z,67.50
2022-11-23T12:00:04.230Z,67.50
2022-11-23T12:01:04.220Z,61.88
2022-11-23T12:02:04.234Z,61.88
2022-11-23T12:03:04.248Z,90.00
2022-11-23T12:04:04.197Z,213.75
2022-11-23T12:05:04.172Z,202.50
2022-11-23T12:06:04.180Z,163.12
2022-11-23T12:07:04.164Z,185.62
2022-11-23T12:08:04.149Z,258.75
2022-11-23T12:09:04.131Z,180.00
2022-11-23T12:10:04.125Z,185.62
2022-11-23T12:11:04.127Z,90.00
2022-11-23T12:12:04.128Z,67.50
2022-11-23T12:13:04.086Z,84.38
2022-11-23T12:14:04.100Z,90.00
2022-11-23T12:15:15.243Z,118.12
2022-11-23T12:16:04.091Z,95.62
2022-11-23T12:21:01.319Z,84.38
2022-11-23T12:21:05.992Z,78.75
2022-11-23T12:21:11.556Z,56.25
2022-11-23T12:22:11.496Z,56.25
2022-11-23T12:23:11.466Z,78.75
2022-11-23T12:24:11.494Z,112.50
2022-11-23T12:25:11.431Z,112.50
2022-11-23T12:26:11.416Z,84.38
2022-11-23T12:27:11.414Z,78.75
2022-11-23T12:28:11.405Z,241.88
2022-11-23T12:29:11.409Z,185.62
2022-11-23T12:30:11.436Z,129.38
2022-11-23T12:31:11.370Z,73.12
2022-11-23T12:32:11.366Z,73.12
2022-11-23T12:33:11.339Z,118.12
2022-11-23T12:34:11.369Z,174.38
2022-11-23T12:35:11.339Z,123.75
2022-11-23T12:36:11.321Z,67.50
2022-11-23T12:37:11.291Z,95.62
2022-11-23T12:38:11.293Z,90.00
2022-11-23T12:39:11.290Z,135.00
2022-11-23T12:40:11.291Z,90.00
2022-11-23T12:41:11.257Z,78.75
2022-11-23T12:42:11.252Z,95.62
2022-11-23T12:43:11.235Z,84.38
2022-11-23T12:44:11.246Z,56.25
2022-11-23T12:45:11.223Z,135.00
2022-11-23T12:46:11.214Z,219.38
2022-11-23T12:47:11.202Z,174.38
2022-11-23T12:48:11.200Z,84.38
2022-11-23T12:49:11.174Z,67.50
2022-11-23T12:50:11.204Z,73.12
2022-11-23T12:51:11.156Z,61.88
2022-11-23T12:52:11.155Z,61.88
2022-11-23T12:53:11.124Z,61.88
2022-11-23T12:54:11.207Z,67.50
2022-11-23T12:55:15.047Z,95.62
2022-11-23T12:56:11.779Z,118.12
2022-11-23T12:57:11.135Z,112.50
2022-11-23T12:58:11.088Z,78.75
2022-11-23T12:59:11.089Z,90.00
2022-11-23T13:00:11.085Z,67.50
2022-11-23T13:01:11.157Z,56.25
2022-11-23T13:02:11.119Z,95.62
2022-11-23T13:03:11.133Z,213.75
2022-11-23T13:04:11.035Z,270.00
2022-11-23T13:05:11.033Z,202.50
2022-11-23T13:06:11.016Z,230.62
2022-11-23T13:08:11.049Z,67.50
2022-11-23T13:09:10.964Z,78.75